createdAt,value
2023-02-13T00:01:01.594Z,16.07
2023-02-13T00:03:49.556Z,14.23
2023-02-13T00:06:35.301Z,11.70
2023-02-13T00:09:20.587Z,13.23
2023-02-13T00:12:07.459Z,14.97
2023-02-13T00:14:52.766Z,11.17
2023-02-13T00:17:38.528Z,13.97
2023-02-13T00:20:26.522Z,13.50
2023-02-13T00:23:11.823Z,10.73
2023-02-13T00:25:58.399Z,9.77
2023-02-13T00:28:44.663Z,7.27
2023-02-13T00:31:30.062Z,6.13
2023-02-13T00:34:15.932Z,6.20
2023-02-13T00:37:01.240Z,16.53
2023-02-13T00:39:51.305Z,4.97
2023-02-13T00:42:36.776Z,8.63
2023-02-13T00:45:22.360Z,7.60
2023-02-13T00:48:07.902Z,4.80
2023-02-13T00:50:55.885Z,4.97
2023-02-13T00:53:42.006Z,4.00
2023-02-13T00:56:27.964Z,4.77
2023-02-13T00:59:13.556Z,6.40
2023-02-13T01:01:59.177Z,4.03
2023-02-13T01:04:44.861Z,6.20
2023-02-13T01:07:30.372Z,3.70
2023-02-13T01:10:15.930Z,8.50
2023-02-13T01:13:01.730Z,4.30
2023-02-13T01:15:48.431Z,2.40
2023-02-13T01:18:34.282Z,6.43
2023-02-13T01:21:23.305Z,3.43
2023-02-13T01:24:09.360Z,2.17
2023-02-13T01:26:54.938Z,1.67
2023-02-13T01:29:42.293Z,4.33
2023-02-13T01:32:27.724Z,1.97
2023-02-13T01:35:14.172Z,4.13
2023-02-13T01:37:59.372Z,2.30
2023-02-13T01:40:55.436Z,1.77
2023-02-13T01:43:55.549Z,2.50
2023-02-13T01:46:43.811Z,3.53
2023-02-13T01:49:29.661Z,3.30
2023-02-13T01:52:16.589Z,2.57
2023-02-13T01:55:02.134Z,2.00
2023-02-13T01:57:56.899Z,3.87
2023-02-13T02:00:49.895Z,1.50
2023-02-13T02:04:17.343Z,1.80
2023-02-13T02:07:11.568Z,2.30
2023-02-13T02:10:03.278Z,1.77
2023-02-13T02:13:09.907Z,2.27
2023-02-13T02:15:55.864Z,5.50
2023-02-13T02:18:41.083Z,3.07
2023-02-13T02:21:53.378Z,1.63
2023-02-13T02:24:53.764Z,2.07
2023-02-13T02:28:08.184Z,2.67
2023-02-13T02:31:12.477Z,1.53
2023-02-13T02:34:17.387Z,1.50
2023-02-13T02:37:05.884Z,2.30
2023-02-13T02:40:19.869Z,4.60
2023-02-13T02:43:24.515Z,3.57
2023-02-13T02:47:02.397Z,3.40
2023-02-13T02:50:01.951Z,2.47
2023-02-13T02:53:24.099Z,2.83
2023-02-13T02:56:09.393Z,3.70
2023-02-13T02:59:20.489Z,2.60
2023-02-13T03:02:25.469Z,2.90
2023-02-13T03:05:45.359Z,2.80
2023-02-13T03:08:49.575Z,2.73
2023-02-13T03:11:55.934Z,4.33
2023-02-13T03:14:42.569Z,3.50
2023-02-13T03:17:46.655Z,3.40
2023-02-13T03:21:04.832Z,2.90
2023-02-13T03:24:05.920Z,5.13
2023-02-13T03:27:40.975Z,4.37
2023-02-13T03:30:39.839Z,4.60
2023-02-13T03:33:43.759Z,3.07
2023-02-13T03:37:24.981Z,4.50
2023-02-13T03:40:18.189Z,6.40
2023-02-13T03:43:16.788Z,4.23
2023-02-13T03:46:03.368Z,4.20
2023-02-13T03:49:07.668Z,6.43
2023-02-13T03:52:06.413Z,3.40
2023-02-13T03:55:25.916Z,3.37
2023-02-13T03:58:39.352Z,3.53
2023-02-13T04:01:28.588Z,4.90
2023-02-13T04:04:43.737Z,3.83
2023-02-13T04:07:29.697Z,7.37
2023-02-13T04:10:18.538Z,3.53
2023-02-13T04:13:15.310Z,4.03
2023-02-13T04:16:17.540Z,5.20
2023-02-13T04:19:06.645Z,4.97
2023-02-13T04:22:00.303Z,5.53
2023-02-13T04:24:46.383Z,5.93
2023-02-13T04:27:33.891Z,5.67
2023-02-13T04:30:21.745Z,5.80
2023-02-13T04:33:07.102Z,8.83
2023-02-13T04:35:52.723Z,9.57
2023-02-13T04:38:38.235Z,4.20
2023-02-13T04:41:26.477Z,5.57
2023-02-13T04:44:11.547Z,6.27
2023-02-13T04:46:57.076Z,4.90
2023-02-13T04:49:42.584Z,4.77
2023-02-13T04:52:28.105Z,4.70
2023-02-13T04:55:14.042Z,5.00
2023-02-13T04:58:01.834Z,7.70
2023-02-13T05:00:47.359Z,8.03
2023-02-13T05:03:34.807Z,10.00
2023-02-13T05:06:22.211Z,6.23
2023-02-13T05:09:07.501Z,5.37
2023-02-13T05:11:53.783Z,7.97
2023-02-13T05:14:41.842Z,9.77
2023-02-13T05:17:29.251Z,7.00
2023-02-13T05:20:15.400Z,7.07
2023-02-13T05:23:21.763Z,8.83
2023-02-13T05:26:07.423Z,5.60
2023-02-13T05:29:11.479Z,7.87
2023-02-13T05:32:01.209Z,7.07
2023-02-13T05:34:47.077Z,7.30
2023-02-13T05:37:32.788Z,8.33
2023-02-13T05:40:18.701Z,7.03
2023-02-13T05:43:08.698Z,8.50
2023-02-13T05:46:03.025Z,6.87
2023-02-13T05:48:48.978Z,5.10
2023-02-13T05:51:34.489Z,7.67
2023-02-13T05:54:20.067Z,3.77
2023-02-13T05:57:05.341Z,3.23
2023-02-13T05:59:50.671Z,4.13
2023-02-13T06:02:38.171Z,3.83
2023-02-13T06:05:23.485Z,3.50
2023-02-13T06:08:09.353Z,5.33
2023-02-13T06:10:55.094Z,6.03
2023-02-13T06:13:40.933Z,3.60
2023-02-13T06:16:31.083Z,2.87
2023-02-13T06:19:16.351Z,3.60
2023-02-13T06:22:02.015Z,4.37
2023-02-13T06:24:47.329Z,3.43
2023-02-13T06:27:37.340Z,3.27
2023-02-13T06:30:23.455Z,2.93
2023-02-13T06:33:09.566Z,4.13
2023-02-13T06:35:55.084Z,4.67
2023-02-13T06:38:43.217Z,3.37
2023-02-13T06:41:28.527Z,7.70
2023-02-13T06:44:14.314Z,6.00
2023-02-13T06:47:00.007Z,2.37
2023-02-13T06:49:45.643Z,2.87
2023-02-13T06:52:31.218Z,3.43
2023-02-13T06:55:17.725Z,3.50
2023-02-13T06:58:03.838Z,3.87
2023-02-13T07:00:50.941Z,3.47
2023-02-13T07:03:36.745Z,4.50
2023-02-13T07:06:22.295Z,2.20
2023-02-13T07:09:07.732Z,2.73
2023-02-13T07:11:53.198Z,2.70
2023-02-13T07:14:38.469Z,2.50
2023-02-13T07:17:24.087Z,3.30
2023-02-13T07:20:09.887Z,2.33
2023-02-13T07:23:02.737Z,2.33
2023-02-13T07:25:50.318Z,4.90
2023-02-13T07:28:36.124Z,4.07
2023-02-13T07:31:21.887Z,3.10
2023-02-13T07:34:07.983Z,2.87
2023-02-13T07:36:53.913Z,2.97
2023-02-13T07:39:39.243Z,2.77
2023-02-13T07:42:25.462Z,2.90
2023-02-13T07:45:12.035Z,2.53
2023-02-13T07:47:58.005Z,3.33
2023-02-13T07:50:43.423Z,3.23
2023-02-13T07:53:32.191Z,3.30
2023-02-13T07:56:20.960Z,5.07
2023-02-13T07:59:07.903Z,2.50
2023-02-13T08:01:58.473Z,4.43
2023-02-13T08:04:47.579Z,3.50
2023-02-13T08:07:32.811Z,3.07
2023-02-13T08:10:37.263Z,3.70
2023-02-13T08:13:22.720Z,6.20
2023-02-13T08:16:08.070Z,2.80
2023-02-13T08:18:53.602Z,3.70
2023-02-13T08:21:40.604Z,4.57
2023-02-13T08:24:26.040Z,4.73
2023-02-13T08:27:15.586Z,3.80
2023-02-13T08:30:01.967Z,8.20
2023-02-13T08:32:54.225Z,5.33
2023-02-13T08:35:40.138Z,4.77
2023-02-13T08:38:26.394Z,3.47
2023-02-13T08:41:11.800Z,4.50
2023-02-13T08:43:57.327Z,4.37
2023-02-13T08:46:45.112Z,4.73
2023-02-13T08:49:30.953Z,5.40
2023-02-13T08:52:18.854Z,3.50
2023-02-13T08:55:04.387Z,2.63
2023-02-13T08:57:50.348Z,5.97
2023-02-13T09:00:36.292Z,3.03
2023-02-13T09:03:22.391Z,4.27
2023-02-13T09:06:08.438Z,4.13
2023-02-13T09:08:54.127Z,4.97
2023-02-13T09:11:39.438Z,2.87
2023-02-13T09:14:25.392Z,5.00
2023-02-13T09:17:11.652Z,6.07
2023-02-13T09:19:56.832Z,4.60
2023-02-13T09:22:47.240Z,4.10
2023-02-13T09:25:34.793Z,3.20
2023-02-13T09:28:20.156Z,3.30
2023-02-13T09:31:13.691Z,3.80
2023-02-13T09:34:01.425Z,4.30
2023-02-13T09:36:46.899Z,9.33
2023-02-13T09:39:33.162Z,6.07
2023-02-13T09:42:36.927Z,4.87
2023-02-13T09:45:23.093Z,3.27
2023-02-13T09:48:16.108Z,5.80
2023-02-13T09:51:01.784Z,6.17
2023-02-13T09:54:03.114Z,5.27
2023-02-13T09:57:27.574Z,6.13
2023-02-13T10:00:26.618Z,5.07
2023-02-13T10:03:42.496Z,6.43
2023-02-13T10:06:49.845Z,7.43
2023-02-13T10:09:37.854Z,6.37
2023-02-13T10:12:44.803Z,6.30
2023-02-13T10:15:54.623Z,6.07
2023-02-13T10:18:53.704Z,7.57
2023-02-13T10:21:52.882Z,10.40
2023-02-13T10:24:43.663Z,9.10
2023-02-13T10:27:36.304Z,5.77
2023-02-13T10:31:02.281Z,5.57
2023-02-13T10:33:52.173Z,7.87
2023-02-13T10:36:46.339Z,7.93
2023-02-13T10:39:34.227Z,7.60
2023-02-13T10:42:20.214Z,6.17
2023-02-13T10:45:06.736Z,7.30
2023-02-13T10:48:29.994Z,7.17
2023-02-13T10:51:44.935Z,6.07
2023-02-13T10:55:08.776Z,5.93
2023-02-13T10:58:08.172Z,5.80
2023-02-13T11:01:06.913Z,5.17
2023-02-13T11:04:12.576Z,7.67
2023-02-13T11:07:04.438Z,6.07
2023-02-13T11:09:53.417Z,5.30
2023-02-13T11:12:38.789Z,7.30
2023-02-13T11:15:33.047Z,8.27
2023-02-13T11:18:21.330Z,9.20
2023-02-13T11:21:16.294Z,7.60
2023-02-13T11:24:02.803Z,7.80
2023-02-13T11:26:53.496Z,6.73
2023-02-13T11:29:56.245Z,5.90
2023-02-13T11:32:41.895Z,8.43
2023-02-13T11:35:31.009Z,7.70
2023-02-13T11:38:18.105Z,8.60
2023-02-13T11:41:15.268Z,9.07
2023-02-13T11:44:03.060Z,7.97
2023-02-13T11:46:50.981Z,7.03
2023-02-13T11:49:46.738Z,8.77
2023-02-13T11:52:35.193Z,11.10
2023-02-13T11:55:33.300Z,7.00
2023-02-13T11:58:30.834Z,12.70
2023-02-13T12:01:26.126Z,7.87
2023-02-13T12:04:17.815Z,8.53
2023-02-13T12:07:12.710Z,11.87
2023-02-13T12:10:11.920Z,11.17
2023-02-13T12:13:35.498Z,8.47
2023-02-13T12:16:35.557Z,8.97
2023-02-13T12:19:29.975Z,9.87
2023-02-13T12:22:38.297Z,14.07
2023-02-13T12:25:41.927Z,9.70
2023-02-13T12:28:45.362Z,9.60
2023-02-13T12:31:43.475Z,9.87
2023-02-13T12:34:55.711Z,13.23
2023-02-13T12:38:02.910Z,11.10
2023-02-13T12:41:29.263Z,10.40
2023-02-13T12:44:35.829Z,11.90
2023-02-13T12:47:31.272Z,11.00
2023-02-13T12:50:29.013Z,11.73
2023-02-13T12:53:38.701Z,14.73
2023-02-13T12:56:51.696Z,11.57
2023-02-13T12:59:49.056Z,10.37
2023-02-13T13:02:34.954Z,15.73
2023-02-13T13:05:50.718Z,10.90
2023-02-13T13:08:58.458Z,10.30
2023-02-13T13:11:43.559Z,13.93
2023-02-13T13:14:41.693Z,7.90
2023-02-13T13:18:04.216Z,12.17
2023-02-13T13:21:09.122Z,7.37
2023-02-13T13:24:25.481Z,14.13
2023-02-13T13:27:37.774Z,11.47
2023-02-13T13:30:30.544Z,12.43
2023-02-13T13:33:19.884Z,8.90
2023-02-13T13:36:19.785Z,13.73
2023-02-13T13:39:28.582Z,13.50
2023-02-13T13:42:26.409Z,12.23
2023-02-13T13:45:31.019Z,12.00
2023-02-13T13:48:45.531Z,12.53
2023-02-13T13:51:33.495Z,9.77
2023-02-13T13:54:23.356Z,9.43
2023-02-13T13:57:12.890Z,10.77
2023-02-13T14:00:02.929Z,11.37
2023-02-13T14:03:10.209Z,8.43
2023-02-13T14:06:10.011Z,10.17
2023-02-13T14:09:00.887Z,9.10
2023-02-13T14:11:47.297Z,15.40
2023-02-13T14:14:36.205Z,19.40
2023-02-13T14:17:43.615Z,8.57
2023-02-13T14:20:52.015Z,10.07
2023-02-13T14:23:50.233Z,10.73
2023-02-13T14:26:41.744Z,12.23
2023-02-13T14:29:31.128Z,16.67
2023-02-13T14:32:21.358Z,10.80
2023-02-13T14:35:26.256Z,12.30
2023-02-13T14:38:24.849Z,12.50
2023-02-13T14:41:44.424Z,11.50
2023-02-13T14:44:43.489Z,12.73
2023-02-13T14:47:42.951Z,11.10
2023-02-13T14:50:40.518Z,10.13
2023-02-13T14:53:31.992Z,9.13
2023-02-13T14:56:22.667Z,9.90
2023-02-13T14:59:17.818Z,14.13
2023-02-13T15:02:23.000Z,8.87
2023-02-13T15:05:15.434Z,10.37
2023-02-13T15:08:19.937Z,10.70
2023-02-13T15:11:28.122Z,9.20
2023-02-13T15:14:46.500Z,10.20
2023-02-13T15:17:39.980Z,10.27
2023-02-13T15:20:30.403Z,11.70
2023-02-13T15:23:22.581Z,12.70
2023-02-13T15:26:19.367Z,13.40
2023-02-13T15:29:26.689Z,11.90
2023-02-13T15:32:26.041Z,14.20
2023-02-13T15:35:33.265Z,12.60
2023-02-13T15:38:38.072Z,10.87
2023-02-13T15:41:31.526Z,18.30
2023-02-13T15:44:27.777Z,10.70
2023-02-13T15:47:23.458Z,13.40
2023-02-13T15:50:24.113Z,13.27
2023-02-13T15:53:20.642Z,9.83
2023-02-13T15:56:06.415Z,13.67
2023-02-13T15:58:54.609Z,10.23
2023-02-13T16:01:44.468Z,11.70
2023-02-13T16:04:30.668Z,10.47
2023-02-13T16:07:16.266Z,9.70
2023-02-13T16:10:38.710Z,15.87
2023-02-13T16:13:24.364Z,13.10
2023-02-13T16:16:10.892Z,13.63
2023-02-13T16:18:59.670Z,13.23
2023-02-13T16:21:51.346Z,14.03
2023-02-13T16:24:37.129Z,11.33
2023-02-13T16:27:27.399Z,12.37
2023-02-13T16:30:35.526Z,18.50
2023-02-13T16:33:29.600Z,12.90
2023-02-13T16:36:15.123Z,13.63
2023-02-13T16:39:12.318Z,15.33
2023-02-13T16:41:59.124Z,11.70
2023-02-13T16:44:44.647Z,14.30
2023-02-13T16:47:30.117Z,11.17
2023-02-13T16:50:16.552Z,10.23
2023-02-13T16:53:06.042Z,13.93
2023-02-13T16:56:02.415Z,11.10
2023-02-13T16:58:49.994Z,11.77
2023-02-13T17:01:38.555Z,9.87
2023-02-13T17:04:25.552Z,16.27
2023-02-13T17:07:13.646Z,13.60
2023-02-13T17:10:06.353Z,12.70
2023-02-13T17:12:52.040Z,11.57
2023-02-13T17:15:42.377Z,14.20
2023-02-13T17:18:28.019Z,11.70
2023-02-13T17:21:13.976Z,10.80
2023-02-13T17:24:02.333Z,15.67
2023-02-13T17:26:48.222Z,11.90
2023-02-13T17:29:33.775Z,11.30
2023-02-13T17:32:23.464Z,11.97
2023-02-13T17:35:11.425Z,11.70
2023-02-13T17:37:57.023Z,11.33
2023-02-13T17:40:43.654Z,12.13
2023-02-13T17:43:30.135Z,12.20
2023-02-13T17:46:17.225Z,11.80
2023-02-13T17:49:04.328Z,11.23
2023-02-13T17:51:49.806Z,12.70
2023-02-13T17:54:35.974Z,12.20
2023-02-13T17:57:22.055Z,14.30
2023-02-13T18:00:08.409Z,12.67
2023-02-13T18:02:55.145Z,12.27
2023-02-13T18:05:41.454Z,13.17
2023-02-13T18:08:26.898Z,13.20
2023-02-13T18:11:12.648Z,13.07
2023-02-13T18:13:58.054Z,15.77
2023-02-13T18:16:46.056Z,12.40
2023-02-13T18:19:31.213Z,12.73
2023-02-13T18:22:16.503Z,16.23
2023-02-13T18:25:02.095Z,13.83
2023-02-13T18:27:48.384Z,12.70
2023-02-13T18:30:33.768Z,14.03
2023-02-13T18:33:22.075Z,12.33
2023-02-13T18:36:07.509Z,12.77
2023-02-13T18:38:55.809Z,13.60
2023-02-13T18:41:41.923Z,13.83
2023-02-13T18:44:29.724Z,16.13
2023-02-13T18:47:17.543Z,16.77
2023-02-13T18:50:08.343Z,13.83
2023-02-13T18:52:56.729Z,14.80
2023-02-13T18:55:42.135Z,14.17
2023-02-13T18:58:30.362Z,17.13
2023-02-13T19:01:22.755Z,13.30
2023-02-13T19:04:10.266Z,13.60
2023-02-13T19:06:58.562Z,18.40
2023-02-13T19:09:46.106Z,11.97
2023-02-13T19:12:31.529Z,15.17
2023-02-13T19:15:17.291Z,11.93
2023-02-13T19:18:02.683Z,14.03
2023-02-13T19:20:48.060Z,16.70
2023-02-13T19:23:37.531Z,15.00
2023-02-13T19:26:28.338Z,15.00
2023-02-13T19:29:16.827Z,14.97
2023-02-13T19:32:03.415Z,14.70
2023-02-13T19:34:49.673Z,17.50
2023-02-13T19:37:43.548Z,14.70
2023-02-13T19:40:30.046Z,17.70
2023-02-13T19:43:15.350Z,22.53
2023-02-13T19:46:06.003Z,13.57
2023-02-13T19:48:52.583Z,14.47
2023-02-13T19:51:38.425Z,14.83
2023-02-13T19:54:23.971Z,17.97
2023-02-13T19:57:09.479Z,18.07
2023-02-13T19:59:54.818Z,16.33
2023-02-13T20:02:43.406Z,15.30
2023-02-13T20:05:31.722Z,15.77
2023-02-13T20:08:19.356Z,17.13
2023-02-13T20:11:08.838Z,13.37
2023-02-13T20:13:56.472Z,17.57
2023-02-13T20:16:46.406Z,19.53
2023-02-13T20:19:32.314Z,17.77
2023-02-13T20:22:18.849Z,15.13
2023-02-13T20:25:05.635Z,19.43
2023-02-13T20:27:50.776Z,15.47
2023-02-13T20:30:36.970Z,18.60
2023-02-13T20:33:23.058Z,19.17
2023-02-13T20:36:09.874Z,15.60
2023-02-13T20:39:00.159Z,14.83
2023-02-13T20:41:50.439Z,17.57
2023-02-13T20:44:36.193Z,15.43
2023-02-13T20:47:22.002Z,17.73
2023-02-13T20:50:07.829Z,22.80
2023-02-13T20:52:53.545Z,19.27
2023-02-13T20:55:38.886Z,17.40
2023-02-13T20:58:26.471Z,20.67
2023-02-13T21:01:24.416Z,18.07
2023-02-13T21:04:13.700Z,21.27
2023-02-13T21:06:59.106Z,17.13
2023-02-13T21:09:45.718Z,20.30
2023-02-13T21:12:30.954Z,16.60
2023-02-13T21:15:18.863Z,21.20
2023-02-13T21:18:07.735Z,17.43
2023-02-13T21:20:57.481Z,17.63
2023-02-13T21:23:43.408Z,28.60
2023-02-13T21:26:32.361Z,18.03
2023-02-13T21:29:17.981Z,18.77
2023-02-13T21:32:03.777Z,19.53
2023-02-13T21:34:52.117Z,19.20
2023-02-13T21:37:37.994Z,19.53
2023-02-13T21:40:23.380Z,14.57
2023-02-13T21:43:08.580Z,15.63
2023-02-13T21:45:54.326Z,14.93
2023-02-13T21:48:41.093Z,18.73
2023-02-13T21:51:28.617Z,16.53
2023-02-13T21:54:17.158Z,18.80
2023-02-13T21:57:04.648Z,16.83
2023-02-13T21:59:50.075Z,21.00
2023-02-13T22:02:35.438Z,14.50
2023-02-13T22:05:21.192Z,20.37
2023-02-13T22:08:13.012Z,18.30
2023-02-13T22:10:59.720Z,16.50
2023-02-13T22:13:45.336Z,15.17
2023-02-13T22:16:36.083Z,14.27
2023-02-13T22:19:21.960Z,15.20
2023-02-13T22:22:12.376Z,19.07
2023-02-13T22:24:58.161Z,20.07
2023-02-13T22:27:48.380Z,18.90
2023-02-13T22:30:36.141Z,17.63
2023-02-13T22:33:22.102Z,19.87
2023-02-13T22:36:08.348Z,17.50
2023-02-13T22:38:56.413Z,19.60
2023-02-13T22:41:45.752Z,18.40
2023-02-13T22:44:31.437Z,14.53
2023-02-13T22:47:17.760Z,18.20
2023-02-13T22:50:03.205Z,20.00
2023-02-13T22:52:48.717Z,18.70
2023-02-13T22:55:34.111Z,15.73
2023-02-13T22:58:19.656Z,17.87
2023-02-13T23:01:18.861Z,17.40
2023-02-13T23:04:04.433Z,16.00
2023-02-13T23:06:50.130Z,16.53
2023-02-13T23:09:35.424Z,17.97
2023-02-13T23:12:36.692Z,16.07
2023-02-13T23:15:22.162Z,18.70
2023-02-13T23:18:13.431Z,20.57
2023-02-13T23:21:04.565Z,18.07
2023-02-13T23:23:50.483Z,17.43
2023-02-13T23:26:35.783Z,17.50
2023-02-13T23:29:21.329Z,16.60
2023-02-13T23:32:07.388Z,16.83
2023-02-13T23:34:53.031Z,16.50
2023-02-13T23:37:40.991Z,16.57
2023-02-13T23:40:26.384Z,17.10
2023-02-13T23:43:15.270Z,18.67
2023-02-13T23:46:06.964Z,20.93
2023-02-13T23:48:52.450Z,13.60
2023-02-13T23:51:45.838Z,18.50
2023-02-13T23:54:31.346Z,16.80
2023-02-13T23:57:17.071Z,15.17
